Othello — LXOD — position and weather

sailwx.info

Track history (hours):
 
Tides and Currents Weather Stations Pressure Air Temp Water Temp Dewpoint Dewpoint Depression Visibility Wind Speed Wind Dir Waves Ship Positions

Othello

Last reported at 2016-Aug-26 14:22 UTC. Time now 2016-Aug-26 23:31 UTC.
Position N 41°06' E 001°13'.

Length 104 m; draft 7.6 m.

Type: Tanker. MMSI: 253279000.

Date/timePositionNaut miles runAvg speedWind from/ knotsBaromVisibWave heightAir tempDewpointWater temp
2016-Aug-26 14:22N 41°06' E 001°13'2 0.2
2016-Aug-26 04:04N 41°04' E 001°15'810.2
2016-Aug-26 03:18N 40°56' E 001°11'810.4
2016-Aug-26 02:32N 40°49' E 001°09'10 9.9
2016-Aug-26 01:33N 40°39' E 001°07'10 9.6
2016-Aug-26 00:33N 40°30' E 001°03'11 9.3
2016-Aug-25 23:22N 40°19' E 001°01'8 9.1
2016-Aug-25 22:32N 40°12' E 000°58'9 9.3
2016-Aug-25 21:32N 40°03' E 000°56'10 9.5
2016-Aug-25 20:32N 39°54' E 000°52'57 9.4
2016-Aug-25 14:26N 38°58' E 000°35'120 8.4
2016-Aug-25 00:17N 37°19' W 000°50'5 7.3
2016-Aug-24 23:33N 37°16' W 000°55'215 8.2
2016-Aug-23 21:17N 36°00' W 005°06'811.1
2016-Aug-23 20:33N 35°59' W 005°16'1111.1
2016-Aug-23 19:33N 35°56' W 005°29'11 9.3
2016-Aug-23 18:20N 35°55' W 005°43'8 9.6
2016-Aug-23 17:28N 35°54' W 005°53'18010.0
2016-Aug-22 23:33N 36°39' W 009°29'1111.2
2016-Aug-22 22:33N 36°47' W 009°38'1212.2
2016-Aug-22 21:32N 36°59' W 009°42'1212.4
2016-Aug-22 20:33N 37°11' W 009°45'1312.6
2016-Aug-22 19:33N 37°24' W 009°49'1312.5
2016-Aug-22 18:32N 37°36' W 009°52'1313.0
2016-Aug-22 17:33N 37°48' W 009°55'1313.3
2016-Aug-22 16:33N 38°01' W 009°59'1313.2
2016-Aug-22 15:33N 38°14' W 010°03'1313.4
2016-Aug-22 14:33N 38°27' W 010°07'1313.0
2016-Aug-22 13:33N 38°40' W 010°11'1313.0
2016-Aug-22 12:33N 38°53' W 010°11'1312.9
2016-Aug-22 11:33N 39°06' W 010°11'1313.0
2016-Aug-22 10:32N 39°19' W 010°10'1812.7
2016-Aug-22 09:08N 39°37' W 010°11'9812.9
2016-Aug-22 01:31N 41°15' W 010°13'  
2016-Aug-19 15:32N 49°45' W 003°34'1212.0
2016-Aug-19 14:33N 49°52' W 003°19'1313.3
2016-Aug-19 13:33N 49°58' W 003°01'1413.9
2016-Aug-19 12:33N 50°02' W 002°40'8911.1
2016-Aug-19 04:33N 50°26' W 000°26'1414.3
2016-Aug-19 03:34N 50°29' W 000°04'1414.2
2016-Aug-19 02:34N 50°34' E 000°17'1413.4
2016-Aug-19 01:33N 50°39' E 000°37'1312.3
2016-Aug-19 00:28N 50°47' E 000°53'1211.1
2016-Aug-18 23:25N 50°54' E 001°07'910.9
2016-Aug-18 22:33N 51°00' E 001°19'1212.5
2016-Aug-18 21:33N 51°08' E 001°34'1514.6
2016-Aug-18 20:34N 51°18' E 001°51'1211.7
2016-Aug-18 19:34N 51°23' E 002°08'1313.0
2016-Aug-18 18:33N 51°23' E 002°29'1312.7
2016-Aug-18 17:34N 51°22' E 002°49'1313.3
2016-Aug-18 16:33N 51°24' E 003°10'1414.1
2016-Aug-18 15:34N 51°26' E 003°33'1111.1
2016-Aug-18 14:33N 51°21' E 003°49'9 9.2
2016-Aug-18 13:33N 51°25' E 004°02'7 7.2
2016-Aug-18 12:33N 51°23' E 004°13'8 7.9
2016-Aug-18 11:34N 51°17' E 004°20'0 0.4
2016-Aug-18 10:33N 51°17' E 004°20'1 0.8
2016-Aug-18 09:29N 51°18' E 004°20'0 0.0
2016-Aug-18 08:26N 51°18' E 004°20'0 0.0
2016-Aug-18 07:32N 51°18' E 004°20'0 0.0
2016-Aug-18 06:32N 51°18' E 004°20'0 0.0
2016-Aug-18 04:32N 51°18' E 004°20'0 0.0
2016-Aug-18 03:32N 51°18' E 004°20'0 0.0
2016-Aug-18 02:26N 51°18' E 004°20'0 0.0
2016-Aug-18 01:23N 51°18' E 004°20'0 0.0
2016-Aug-18 00:29N 51°18' E 004°20'0 0.0
2016-Aug-17 23:32N 51°18' E 004°20'0 0.0
2016-Aug-17 22:29N 51°18' E 004°20'0 0.0
2016-Aug-17 21:33N 51°18' E 004°20'0 0.4
2016-Aug-17 20:33N 51°17' E 004°20'0 0.0
2016-Aug-17 19:04N 51°17' E 004°20'0 0.0
2016-Aug-17 18:28N 51°17' E 004°20'0 0.0
2016-Aug-17 17:31N 51°17' E 004°20'0 0.0
2016-Aug-17 16:25N 51°17' E 004°20'0 0.0
2016-Aug-17 15:28N 51°17' E 004°20'0 0.0
2016-Aug-17 14:31N 51°17' E 004°20'0 0.0
2016-Aug-17 13:28N 51°17' E 004°20'0 0.0
2016-Aug-17 12:28N 51°17' E 004°20'0 0.0
2016-Aug-17 11:28N 51°17' E 004°20'0 0.0
2016-Aug-17 10:25N 51°17' E 004°20'0 0.0
2016-Aug-17 09:28N 51°17' E 004°20'0 0.0
2016-Aug-17 08:31N 51°17' E 004°20'0 0.0
2016-Aug-17 07:22N 51°17' E 004°20'0 0.0
2016-Aug-17 06:10N 51°17' E 004°20'0 0.0
2016-Aug-17 05:31N 51°17' E 004°20'0 0.0
2016-Aug-17 04:25N 51°17' E 004°20'0 0.0
2016-Aug-17 03:28N 51°17' E 004°20'0 0.0
2016-Aug-17 02:22N 51°17' E 004°20'0 0.5
2016-Aug-17 01:33N 51°18' E 004°20'4 3.5
2016-Aug-17 00:34N 51°21' E 004°17'0 0.0
2016-Aug-16 23:33N 51°21' E 004°17'1 1.2
2016-Aug-16 22:33N 51°21' E 004°15'7 7.5
2016-Aug-16 21:33N 51°22' E 004°03'9 8.8
2016-Aug-16 20:34N 51°21' E 003°49'1010.4
2016-Aug-16 19:33N 51°25' E 003°35'1211.8
2016-Aug-16 18:33N 51°24' E 003°16'1010.2
2016-Aug-16 17:33N 51°23' E 002°60'1110.9
2016-Aug-16 16:33N 51°22' E 002°42'6 2.8
2016-Aug-16 14:31N 51°20' E 002°33'  
Track history (hours):
 
Tides and Currents Weather Stations Pressure Air Temp Water Temp Dewpoint Dewpoint Depression Visibility Wind Speed Wind Dir Waves Ship Positions

Othello

Last reported at 2016-Aug-26 14:22 UTC. Time now 2016-Aug-26 23:31 UTC.
Position N 41°06' E 001°13'.

Length 104 m; draft 7.6 m.

Type: Tanker. MMSI: 253279000.

Date/timePositionNaut miles runAvg speedWind from/ knotsBaromVisibWave heightAir tempDewpointWater temp
2016-Aug-26 14:22N 41°06' E 001°13'2 0.2
2016-Aug-26 04:04N 41°04' E 001°15'810.2
2016-Aug-26 03:18N 40°56' E 001°11'810.4
2016-Aug-26 02:32N 40°49' E 001°09'10 9.9
2016-Aug-26 01:33N 40°39' E 001°07'10 9.6
2016-Aug-26 00:33N 40°30' E 001°03'11 9.3
2016-Aug-25 23:22N 40°19' E 001°01'8 9.1
2016-Aug-25 22:32N 40°12' E 000°58'9 9.3
2016-Aug-25 21:32N 40°03' E 000°56'10 9.5
2016-Aug-25 20:32N 39°54' E 000°52'57 9.4
2016-Aug-25 14:26N 38°58' E 000°35'120 8.4
2016-Aug-25 00:17N 37°19' W 000°50'5 7.3
2016-Aug-24 23:33N 37°16' W 000°55'215 8.2
2016-Aug-23 21:17N 36°00' W 005°06'811.1
2016-Aug-23 20:33N 35°59' W 005°16'1111.1
2016-Aug-23 19:33N 35°56' W 005°29'11 9.3
2016-Aug-23 18:20N 35°55' W 005°43'8 9.6
2016-Aug-23 17:28N 35°54' W 005°53'18010.0
2016-Aug-22 23:33N 36°39' W 009°29'1111.2
2016-Aug-22 22:33N 36°47' W 009°38'1212.2
2016-Aug-22 21:32N 36°59' W 009°42'1212.4
2016-Aug-22 20:33N 37°11' W 009°45'1312.6
2016-Aug-22 19:33N 37°24' W 009°49'1312.5
2016-Aug-22 18:32N 37°36' W 009°52'1313.0
2016-Aug-22 17:33N 37°48' W 009°55'1313.3
2016-Aug-22 16:33N 38°01' W 009°59'1313.2
2016-Aug-22 15:33N 38°14' W 010°03'1313.4
2016-Aug-22 14:33N 38°27' W 010°07'1313.0
2016-Aug-22 13:33N 38°40' W 010°11'1313.0
2016-Aug-22 12:33N 38°53' W 010°11'1312.9
2016-Aug-22 11:33N 39°06' W 010°11'1313.0
2016-Aug-22 10:32N 39°19' W 010°10'1812.7
2016-Aug-22 09:08N 39°37' W 010°11'9812.9
2016-Aug-22 01:31N 41°15' W 010°13'  
2016-Aug-19 15:32N 49°45' W 003°34'1212.0
2016-Aug-19 14:33N 49°52' W 003°19'1313.3
2016-Aug-19 13:33N 49°58' W 003°01'1413.9
2016-Aug-19 12:33N 50°02' W 002°40'8911.1
2016-Aug-19 04:33N 50°26' W 000°26'1414.3
2016-Aug-19 03:34N 50°29' W 000°04'1414.2
2016-Aug-19 02:34N 50°34' E 000°17'1413.4
2016-Aug-19 01:33N 50°39' E 000°37'1312.3
2016-Aug-19 00:28N 50°47' E 000°53'1211.1
2016-Aug-18 23:25N 50°54' E 001°07'910.9
2016-Aug-18 22:33N 51°00' E 001°19'1212.5
2016-Aug-18 21:33N 51°08' E 001°34'1514.6
2016-Aug-18 20:34N 51°18' E 001°51'1211.7
2016-Aug-18 19:34N 51°23' E 002°08'1313.0
2016-Aug-18 18:33N 51°23' E 002°29'1312.7
2016-Aug-18 17:34N 51°22' E 002°49'1313.3
2016-Aug-18 16:33N 51°24' E 003°10'1414.1
2016-Aug-18 15:34N 51°26' E 003°33'1111.1
2016-Aug-18 14:33N 51°21' E 003°49'9 9.2
2016-Aug-18 13:33N 51°25' E 004°02'7 7.2
2016-Aug-18 12:33N 51°23' E 004°13'8 7.9
2016-Aug-18 11:34N 51°17' E 004°20'0 0.4
2016-Aug-18 10:33N 51°17' E 004°20'1 0.8
2016-Aug-18 09:29N 51°18' E 004°20'0 0.0
2016-Aug-18 08:26N 51°18' E 004°20'0 0.0
2016-Aug-18 07:32N 51°18' E 004°20'0 0.0
2016-Aug-18 06:32N 51°18' E 004°20'0 0.0
2016-Aug-18 04:32N 51°18' E 004°20'0 0.0
2016-Aug-18 03:32N 51°18' E 004°20'0 0.0
2016-Aug-18 02:26N 51°18' E 004°20'0 0.0
2016-Aug-18 01:23N 51°18' E 004°20'0 0.0
2016-Aug-18 00:29N 51°18' E 004°20'0 0.0
2016-Aug-17 23:32N 51°18' E 004°20'0 0.0
2016-Aug-17 22:29N 51°18' E 004°20'0 0.0
2016-Aug-17 21:33N 51°18' E 004°20'0 0.4
2016-Aug-17 20:33N 51°17' E 004°20'0 0.0
2016-Aug-17 19:04N 51°17' E 004°20'0 0.0
2016-Aug-17 18:28N 51°17' E 004°20'0 0.0
2016-Aug-17 17:31N 51°17' E 004°20'0 0.0
2016-Aug-17 16:25N 51°17' E 004°20'0 0.0
2016-Aug-17 15:28N 51°17' E 004°20'0 0.0
2016-Aug-17 14:31N 51°17' E 004°20'0 0.0
2016-Aug-17 13:28N 51°17' E 004°20'0 0.0
2016-Aug-17 12:28N 51°17' E 004°20'0 0.0
2016-Aug-17 11:28N 51°17' E 004°20'0 0.0
2016-Aug-17 10:25N 51°17' E 004°20'0 0.0
2016-Aug-17 09:28N 51°17' E 004°20'0 0.0
2016-Aug-17 08:31N 51°17' E 004°20'0 0.0
2016-Aug-17 07:22N 51°17' E 004°20'0 0.0
2016-Aug-17 06:10N 51°17' E 004°20'0 0.0
2016-Aug-17 05:31N 51°17' E 004°20'0 0.0
2016-Aug-17 04:25N 51°17' E 004°20'0 0.0
2016-Aug-17 03:28N 51°17' E 004°20'0 0.0
2016-Aug-17 02:22N 51°17' E 004°20'0 0.5
2016-Aug-17 01:33N 51°18' E 004°20'4 3.5
2016-Aug-17 00:34N 51°21' E 004°17'0 0.0
2016-Aug-16 23:33N 51°21' E 004°17'1 1.2
2016-Aug-16 22:33N 51°21' E 004°15'7 7.5
2016-Aug-16 21:33N 51°22' E 004°03'9 8.8
2016-Aug-16 20:34N 51°21' E 003°49'1010.4
2016-Aug-16 19:33N 51°25' E 003°35'1211.8
2016-Aug-16 18:33N 51°24' E 003°16'1010.2
2016-Aug-16 17:33N 51°23' E 002°60'1110.9
2016-Aug-16 16:33N 51°22' E 002°42'6 2.8
2016-Aug-16 14:31N 51°20' E 002°33'  

Dump ship's entire track history